Time;durP1;ratioP1;P1;durP2;ratioP2;P2;SDS_P1;SDS_P2;PMS_P1;PMS_P2;Temp;Humidity;BMP_temperature;BMP_pressure;BME280_temperature;BME280_humidity;BME280_pressure;Samples;Min_cycle;Max_cycle;Signal;HPM_P1;HPM_P2
2022/01/06 00:01:46;;;;;;;11.47;3.43;;;6.80;75.40;;;;;;5074185;28;20039;-74
2022/01/06 00:04:12;;;;;;;13.80;3.37;;;6.80;75.40;;;;;;5073958;28;20039;-75
2022/01/06 00:06:41;;;;;;;12.30;3.37;;;6.80;75.40;;;;;;5074923;28;20043;-74
2022/01/06 00:09:09;;;;;;;13.70;3.73;;;6.80;75.40;;;;;;5074111;28;20038;-74
2022/01/06 00:11:36;;;;;;;22.40;4.43;;;6.80;75.30;;;;;;5074178;28;20050;-75
2022/01/06 00:14:25;;;;;;;13.73;3.17;;;6.80;75.40;;;;;;5074260;28;20107;-74
2022/01/06 00:24:49;;;;;;;12.23;2.90;;;6.70;75.30;;;;;;5073293;28;20319;-74
2022/01/06 00:27:15;;;;;;;20.10;3.90;;;6.70;75.40;;;;;;5073713;28;20032;-74
2022/01/06 00:29:42;;;;;;;14.27;3.10;;;6.60;75.30;;;;;;5073651;28;20142;-74
2022/01/06 00:32:08;;;;;;;12.40;3.33;;;6.70;75.30;;;;;;5074438;28;20064;-74
2022/01/06 00:34:34;;;;;;;17.17;3.37;;;6.70;75.30;;;;;;5073507;28;20045;-74
2022/01/06 00:37:01;;;;;;;19.47;3.70;;;6.60;75.20;;;;;;5053604;28;20040;-74
2022/01/06 00:39:28;;;;;;;14.53;2.90;;;6.60;75.20;;;;;;5054353;28;20032;-74
2022/01/06 00:42:01;;;;;;;13.90;3.20;;;6.60;75.20;;;;;;5073433;28;20097;-74
2022/01/06 00:44:26;;;;;;;14.80;2.83;;;6.60;75.20;;;;;;5074038;28;20025;-74
2022/01/06 00:46:53;;;;;;;11.67;2.93;;;6.60;75.20;;;;;;5072879;28;20354;-74
2022/01/06 00:49:20;;;;;;;16.63;3.03;;;6.60;75.20;;;;;;5074390;28;20028;-74
2022/01/06 00:51:46;;;;;;;18.03;3.60;;;6.60;75.30;;;;;;5073634;28;20084;-74
2022/01/06 00:54:12;;;;;;;13.77;2.93;;;6.50;75.20;;;;;;5072933;28;20107;-74
2022/01/06 00:56:38;;;;;;;14.23;3.03;;;6.50;75.20;;;;;;5073029;28;20412;-74
2022/01/06 00:59:04;;;;;;;19.17;4.23;;;6.50;75.20;;;;;;5074374;28;20082;-74
2022/01/06 01:01:30;;;;;;;13.43;3.60;;;6.50;75.30;;;;;;5073149;28;20044;-74
2022/01/06 01:03:56;;;;;;;17.43;3.97;;;6.50;75.20;;;;;;5068847;28;20427;-74
2022/01/06 01:06:22;;;;;;;12.90;3.30;;;6.50;75.20;;;;;;5073182;28;20039;-74
2022/01/06 01:08:48;;;;;;;16.90;3.73;;;6.50;75.20;;;;;;5073304;28;20032;-75
2022/01/06 01:11:14;;;;;;;14.60;3.37;;;6.50;75.20;;;;;;5073833;28;20097;-74
2022/01/06 01:13:55;;;;;;;13.17;2.70;;;6.50;75.20;;;;;;5072880;28;20020;-75
2022/01/06 01:16:28;;;;;;;14.97;2.63;;;6.50;75.20;;;;;;5072699;28;20028;-74
2022/01/06 01:18:56;;;;;;;13.13;3.53;;;6.50;75.10;;;;;;5074373;28;20029;-74
2022/01/06 01:21:26;;;;;;;12.20;3.50;;;6.50;75.10;;;;;;5054374;28;20392;-74
2022/01/06 01:23:55;;;;;;;15.43;3.07;;;6.50;75.00;;;;;;5055998;28;20334;-74
2022/01/06 01:26:21;;;;;;;13.67;2.93;;;6.50;75.00;;;;;;5073296;28;20020;-74
2022/01/06 01:28:47;;;;;;;13.40;2.90;;;6.60;75.10;;;;;;5073291;28;20102;-75
2022/01/06 01:33:51;;;;;;;12.03;2.70;;;6.60;75.00;;;;;;5069784;28;20044;-74
2022/01/06 01:36:17;;;;;;;15.07;2.57;;;6.60;74.90;;;;;;5073821;28;20040;-74
2022/01/06 01:38:42;;;;;;;12.17;2.97;;;6.50;74.90;;;;;;5072978;28;20028;-74
2022/01/06 01:41:09;;;;;;;15.33;2.60;;;6.50;74.90;;;;;;5072592;28;20373;-74
2022/01/06 01:43:37;;;;;;;17.20;2.60;;;6.50;74.80;;;;;;5072525;28;20096;-74
2022/01/06 01:46:11;;;;;;;13.47;3.20;;;6.50;74.80;;;;;;5073146;28;20105;-74
2022/01/06 01:48:42;;;;;;;13.00;2.50;;;6.50;74.80;;;;;;5080720;28;20017;-74
2022/01/06 01:51:08;;;;;;;15.53;3.30;;;6.50;74.80;;;;;;5073775;28;20029;-74
2022/01/06 01:53:38;;;;;;;12.83;2.63;;;6.50;74.70;;;;;;5073041;28;20029;-74
2022/01/06 01:56:09;;;;;;;10.00;2.23;;;6.50;74.70;;;;;;5073095;28;20119;-73
2022/01/06 01:58:35;;;;;;;11.48;2.28;;;6.50;74.70;;;;;;5072444;28;20030;-74
2022/01/06 02:01:02;;;;;;;10.10;2.33;;;6.50;74.70;;;;;;5073648;28;20070;-74
2022/01/06 02:03:30;;;;;;;12.90;2.83;;;6.50;74.70;;;;;;5071986;28;20056;-74
2022/01/06 02:05:56;;;;;;;13.40;2.50;;;6.50;74.70;;;;;;5073829;28;20028;-74
2022/01/06 02:08:22;;;;;;;14.40;2.87;;;6.50;74.70;;;;;;5072401;28;20110;-74
2022/01/06 02:10:47;;;;;;;14.27;2.53;;;6.50;74.60;;;;;;5073723;28;20101;-74
2022/01/06 02:13:15;;;;;;;17.17;3.00;;;6.50;74.60;;;;;;5072324;28;20029;-74
2022/01/06 02:15:40;;;;;;;12.83;2.40;;;6.50;74.60;;;;;;5072575;28;20036;-74
2022/01/06 02:18:06;;;;;;;12.53;2.67;;;6.50;74.60;;;;;;5073339;28;20105;-74
2022/01/06 02:20:32;;;;;;;14.10;2.97;;;6.50;74.60;;;;;;5071117;28;20017;-74
2022/01/06 02:22:57;;;;;;;14.17;3.20;;;6.50;74.50;;;;;;5073115;28;20039;-75
2022/01/06 02:25:29;;;;;;;13.83;3.40;;;6.50;74.50;;;;;;5073172;28;20085;-74
2022/01/06 02:27:56;;;;;;;11.18;2.80;;;6.50;74.50;;;;;;5073353;28;20028;-74
2022/01/06 02:30:24;;;;;;;13.97;2.90;;;6.50;74.50;;;;;;5072251;28;20047;-74
2022/01/06 02:32:50;;;;;;;10.83;2.63;;;6.50;74.40;;;;;;5055457;28;20047;-74
2022/01/06 02:35:21;;;;;;;13.57;2.53;;;6.50;74.40;;;;;;5073614;28;20025;-74
2022/01/06 02:37:47;;;;;;;11.23;2.70;;;6.50;74.40;;;;;;5059351;28;20400;-74
2022/01/06 02:40:16;;;;;;;11.63;2.67;;;6.50;74.50;;;;;;5075298;28;20031;-74
2022/01/06 02:42:44;;;;;;;10.73;2.23;;;6.40;74.40;;;;;;5076439;28;20024;-74
2022/01/06 02:45:11;;;;;;;12.87;2.93;;;6.40;74.40;;;;;;5056980;28;20032;-75
2022/01/06 02:47:37;;;;;;;11.50;2.77;;;6.40;74.40;;;;;;5074952;28;20437;-74
2022/01/06 02:50:05;;;;;;;15.17;2.93;;;6.40;74.40;;;;;;5075487;28;20028;-74
2022/01/06 02:52:31;;;;;;;17.23;3.03;;;6.40;74.40;;;;;;5076035;28;20074;-75
2022/01/06 02:54:56;;;;;;;16.20;2.97;;;6.40;74.40;;;;;;5076190;28;20052;-74
2022/01/06 02:57:22;;;;;;;14.87;2.33;;;6.40;74.40;;;;;;5074443;28;20024;-74
2022/01/06 02:59:47;;;;;;;14.00;2.83;;;6.40;74.40;;;;;;5058923;28;20029;-74
2022/01/06 03:02:13;;;;;;;9.37;2.20;;;6.40;74.40;;;;;;5076539;28;20342;-74
2022/01/06 03:04:39;;;;;;;16.67;2.30;;;6.40;74.40;;;;;;5074915;28;20113;-74
2022/01/06 03:07:07;;;;;;;13.53;2.23;;;6.40;74.40;;;;;;5075345;28;20062;-74
2022/01/06 03:09:40;;;;;;;14.10;2.67;;;6.40;74.40;;;;;;5075052;28;20037;-74
2022/01/06 03:12:20;;;;;;;12.73;2.23;;;6.40;74.40;;;;;;5076180;28;20025;-74
2022/01/06 03:14:46;;;;;;;9.97;2.70;;;6.40;74.50;;;;;;5075495;28;20368;-74
2022/01/06 03:17:12;;;;;;;12.60;2.50;;;6.40;74.40;;;;;;5075082;28;20058;-74
2022/01/06 03:19:37;;;;;;;11.50;2.67;;;6.40;74.50;;;;;;5054836;28;20064;-74
2022/01/06 03:22:03;;;;;;;9.40;2.17;;;6.40;74.50;;;;;;5065933;28;20429;-74
2022/01/06 03:24:30;;;;;;;12.50;2.87;;;6.40;74.50;;;;;;5074566;28;20127;-74
2022/01/06 03:26:56;;;;;;;10.33;2.53;;;6.40;74.40;;;;;;5076037;28;20358;-75
2022/01/06 03:29:21;;;;;;;13.03;2.70;;;6.40;74.40;;;;;;5074703;28;20059;-74
2022/01/06 03:31:49;;;;;;;7.20;2.23;;;6.40;74.40;;;;;;5058014;28;20409;-74
2022/01/06 03:34:15;;;;;;;14.50;2.20;;;6.40;74.40;;;;;;5074212;28;20059;-74
2022/01/06 03:36:41;;;;;;;9.20;2.53;;;6.40;74.40;;;;;;5074853;28;20021;-74
2022/01/06 03:39:06;;;;;;;12.43;2.53;;;6.40;74.50;;;;;;5074431;28;20174;-74
2022/01/06 03:41:33;;;;;;;11.23;2.00;;;6.30;74.40;;;;;;5074621;28;20031;-75
2022/01/06 03:43:59;;;;;;;16.10;2.77;;;6.30;74.40;;;;;;5056755;28;20112;-74
2022/01/06 03:46:25;;;;;;;12.10;1.97;;;6.30;74.40;;;;;;5056724;28;20365;-74
2022/01/06 03:48:51;;;;;;;13.00;2.30;;;6.40;74.40;;;;;;5057657;28;20025;-74
2022/01/06 03:51:18;;;;;;;12.70;2.67;;;6.30;74.40;;;;;;5075127;28;20028;-74
2022/01/06 03:53:44;;;;;;;13.70;2.40;;;6.30;75.10;;;;;;5073472;28;20115;-74
2022/01/06 03:56:10;;;;;;;15.20;3.00;;;6.30;74.40;;;;;;5074704;28;20075;-74
2022/01/06 03:58:39;;;;;;;13.80;2.23;;;6.30;74.50;;;;;;5074346;28;20352;-74
2022/01/06 04:01:05;;;;;;;13.53;2.40;;;6.30;74.40;;;;;;5074553;28;20032;-74
2022/01/06 04:03:31;;;;;;;12.10;2.43;;;6.30;74.40;;;;;;5083599;28;20036;-74
2022/01/06 04:05:56;;;;;;;12.33;2.67;;;6.30;74.40;;;;;;5075280;28;20111;-74
2022/01/06 04:08:22;;;;;;;12.80;2.30;;;6.30;74.40;;;;;;5075225;28;20036;-74
2022/01/06 04:10:47;;;;;;;10.27;2.30;;;6.30;74.40;;;;;;5075052;28;20417;-74
2022/01/06 04:13:13;;;;;;;11.70;2.40;;;6.30;74.40;;;;;;5053530;28;20082;-74
2022/01/06 04:15:39;;;;;;;8.10;2.47;;;6.30;74.40;;;;;;5069227;28;20089;-74
2022/01/06 04:18:04;;;;;;;14.13;2.43;;;6.30;74.40;;;;;;5074575;28;20048;-74
2022/01/06 04:20:30;;;;;;;10.83;2.40;;;6.30;74.40;;;;;;5073710;28;20086;-74
2022/01/06 04:22:56;;;;;;;15.67;2.93;;;6.20;74.30;;;;;;5055537;28;20082;-74
2022/01/06 04:25:21;;;;;;;12.47;1.93;;;6.20;74.40;;;;;;5073449;28;20089;-74
2022/01/06 04:27:47;;;;;;;17.73;2.90;;;6.20;74.50;;;;;;5074733;28;20042;-74
2022/01/06 04:30:13;;;;;;;11.63;2.57;;;6.20;74.50;;;;;;5073662;28;20154;-74
2022/01/06 04:32:39;;;;;;;14.10;2.57;;;6.20;74.50;;;;;;5073409;28;20068;-74
2022/01/06 04:35:06;;;;;;;12.17;2.40;;;6.20;74.50;;;;;;5073997;28;20029;-74
2022/01/06 04:37:32;;;;;;;11.70;2.53;;;6.20;74.50;;;;;;5071209;28;20029;-74
2022/01/06 04:39:58;;;;;;;15.80;2.40;;;6.20;74.50;;;;;;5071662;28;20135;-74
2022/01/06 04:42:23;;;;;;;10.47;2.07;;;6.20;74.50;;;;;;5071918;28;20039;-74
2022/01/06 04:44:49;;;;;;;12.50;2.30;;;6.10;74.50;;;;;;5072239;28;20123;-74
2022/01/06 04:47:15;;;;;;;9.73;2.93;;;6.10;74.60;;;;;;5072021;28;20028;-74
2022/01/06 04:49:40;;;;;;;14.17;2.10;;;6.10;74.50;;;;;;5065747;28;20032;-74
2022/01/06 04:52:06;;;;;;;12.07;2.57;;;6.10;74.60;;;;;;5084866;28;20152;-74
2022/01/06 04:54:32;;;;;;;17.83;2.77;;;6.10;74.60;;;;;;5053499;28;20029;-74
2022/01/06 04:56:57;;;;;;;6.93;2.47;;;6.00;74.60;;;;;;5071507;28;20452;-74
2022/01/06 04:59:23;;;;;;;12.60;2.47;;;6.00;74.60;;;;;;5072406;28;20029;-74
2022/01/06 05:01:49;;;;;;;15.07;2.67;;;6.00;74.70;;;;;;5073308;28;20036;-74
2022/01/06 05:04:14;;;;;;;8.73;2.87;;;6.00;74.70;;;;;;5073218;28;20028;-74
2022/01/06 05:06:40;;;;;;;9.67;2.70;;;6.00;74.80;;;;;;5086513;28;20093;-74
2022/01/06 05:09:05;;;;;;;9.10;2.10;;;5.90;74.80;;;;;;5071343;28;20039;-74
2022/01/06 05:11:31;;;;;;;13.33;2.40;;;5.90;74.80;;;;;;5038790;28;20032;-74
2022/01/06 05:13:57;;;;;;;13.70;2.10;;;5.90;74.80;;;;;;5058803;28;20090;-74
2022/01/06 05:16:23;;;;;;;9.20;2.10;;;5.90;74.90;;;;;;5061046;28;20029;-74
2022/01/06 05:18:48;;;;;;;10.70;2.47;;;5.80;74.90;;;;;;5064724;28;20104;-74
2022/01/06 05:21:14;;;;;;;14.13;2.80;;;5.80;75.00;;;;;;5068227;28;20468;-74
2022/01/06 05:23:40;;;;;;;11.03;2.97;;;5.80;75.10;;;;;;5051220;28;20104;-74
2022/01/06 05:26:07;;;;;;;12.80;2.50;;;5.80;75.10;;;;;;5071768;28;20111;-74
2022/01/06 05:28:33;;;;;;;15.53;2.63;;;5.80;75.20;;;;;;5069028;28;20029;-74
2022/01/06 05:30:59;;;;;;;18.93;2.33;;;5.70;75.20;;;;;;5067980;28;20074;-74
2022/01/06 05:33:26;;;;;;;11.27;2.60;;;5.70;75.20;;;;;;5050850;28;20041;-74
2022/01/06 05:35:52;;;;;;;15.10;2.47;;;5.70;75.20;;;;;;5073194;28;20021;-74
2022/01/06 05:38:18;;;;;;;14.70;2.37;;;5.70;75.20;;;;;;5072481;28;20078;-74
2022/01/06 05:40:44;;;;;;;11.27;2.37;;;5.70;75.30;;;;;;5056474;28;20438;-74
2022/01/06 05:43:10;;;;;;;10.70;2.00;;;5.70;75.30;;;;;;5072508;28;20369;-74
2022/01/06 05:45:36;;;;;;;15.93;2.90;;;5.60;75.40;;;;;;5074156;28;20028;-74
2022/01/06 05:48:02;;;;;;;13.70;2.67;;;5.60;75.40;;;;;;5073458;28;20025;-74
2022/01/06 05:50:28;;;;;;;12.17;2.40;;;5.60;75.40;;;;;;5055931;28;20102;-74
2022/01/06 05:52:54;;;;;;;11.03;2.60;;;5.60;75.40;;;;;;5056265;28;20078;-74
2022/01/06 05:55:21;;;;;;;11.67;3.07;;;5.60;75.50;;;;;;5073900;28;20107;-74
2022/01/06 05:57:47;;;;;;;12.03;2.30;;;5.60;75.50;;;;;;5073474;28;20032;-73
2022/01/06 06:00:13;;;;;;;16.40;2.67;;;5.60;75.50;;;;;;5072213;28;20032;-74
2022/01/06 06:02:39;;;;;;;15.23;3.40;;;5.60;75.50;;;;;;5072689;28;20044;-74
2022/01/06 06:05:05;;;;;;;13.60;2.67;;;5.60;75.50;;;;;;5073000;28;20356;-74
2022/01/06 06:07:31;;;;;;;11.03;2.43;;;5.60;75.50;;;;;;5072971;28;20068;-74
2022/01/06 06:09:56;;;;;;;9.53;2.93;;;5.60;75.60;;;;;;5056327;28;20438;-74
2022/01/06 06:12:22;;;;;;;11.40;2.67;;;5.60;75.60;;;;;;5059741;28;20039;-75
2022/01/06 06:14:48;;;;;;;12.10;2.73;;;5.60;75.70;;;;;;5075980;28;20055;-75
2022/01/06 06:17:13;;;;;;;12.60;2.57;;;5.50;75.60;;;;;;5077739;28;20067;-74
2022/01/06 06:19:39;;;;;;;11.60;2.70;;;5.50;75.70;;;;;;5076066;28;20049;-74
2022/01/06 06:22:05;;;;;;;11.03;2.30;;;5.50;75.70;;;;;;5077516;28;20402;-74
2022/01/06 06:24:31;;;;;;;9.83;2.40;;;5.50;75.70;;;;;;5075987;28;20030;-71
2022/01/06 06:26:57;;;;;;;11.50;2.17;;;5.50;75.70;;;;;;5076600;28;20402;-72
2022/01/06 06:29:22;;;;;;;16.73;3.17;;;5.50;75.70;;;;;;5058336;28;20029;-72
2022/01/06 06:31:48;;;;;;;14.97;2.93;;;5.50;75.70;;;;;;5076131;28;20101;-73
2022/01/06 06:34:14;;;;;;;12.63;2.30;;;5.50;75.80;;;;;;5076101;28;20052;-73
2022/01/06 06:36:40;;;;;;;11.47;2.40;;;5.50;75.80;;;;;;5076496;28;20023;-73
2022/01/06 06:39:06;;;;;;;14.23;2.93;;;5.50;75.90;;;;;;5076850;28;20021;-74
2022/01/06 06:41:32;;;;;;;12.90;2.50;;;5.50;75.90;;;;;;5075610;28;20123;-72
2022/01/06 06:43:58;;;;;;;14.17;2.93;;;5.50;75.90;;;;;;5075630;28;20121;-71
2022/01/06 06:46:23;;;;;;;14.43;2.80;;;5.50;75.90;;;;;;5075906;28;20117;-73
2022/01/06 06:48:49;;;;;;;12.33;2.40;;;5.50;75.90;;;;;;5076166;28;20025;-71
2022/01/06 06:51:15;;;;;;;18.93;3.30;;;5.50;76.00;;;;;;5056218;28;20519;-73
2022/01/06 06:53:43;;;;;;;14.07;3.23;;;5.50;76.00;;;;;;5074921;28;20028;-71
2022/01/06 06:56:10;;;;;;;9.97;2.50;;;5.50;76.00;;;;;;5075600;28;20050;-76
2022/01/06 06:58:35;;;;;;;15.77;3.10;;;5.50;76.00;;;;;;5059055;28;20344;-73
2022/01/06 07:01:01;;;;;;;11.20;2.93;;;5.50;76.00;;;;;;5076826;28;20111;-74
2022/01/06 07:03:26;;;;;;;15.67;3.37;;;5.50;76.00;;;;;;5076976;28;20420;-76
2022/01/06 07:05:52;;;;;;;14.90;2.63;;;5.50;76.00;;;;;;5076371;28;20033;-74
2022/01/06 07:08:21;;;;;;;14.53;3.27;;;5.50;76.00;;;;;;5077134;28;20028;-75
2022/01/06 07:10:46;;;;;;;18.10;3.63;;;5.50;76.10;;;;;;5077527;28;20032;-76
2022/01/06 07:13:16;;;;;;;9.47;2.93;;;5.40;76.00;;;;;;5061664;28;20031;-75
2022/01/06 07:15:43;;;;;;;11.37;3.07;;;5.50;76.10;;;;;;5082211;28;20501;-75
2022/01/06 07:18:09;;;;;;;14.33;2.47;;;5.40;76.10;;;;;;5083642;28;20025;-76
2022/01/06 07:20:35;;;;;;;11.17;3.37;;;5.40;76.20;;;;;;5085534;28;20087;-76
2022/01/06 07:23:00;;;;;;;10.60;2.80;;;5.40;76.10;;;;;;5077570;28;20441;-70
2022/01/06 07:25:26;;;;;;;12.13;3.07;;;5.40;76.20;;;;;;5077119;28;20037;-74
2022/01/06 07:27:52;;;;;;;18.60;3.23;;;5.40;76.20;;;;;;5075803;28;20416;-73
2022/01/06 07:30:17;;;;;;;15.80;3.07;;;5.40;76.20;;;;;;5058464;28;20035;-74
2022/01/06 07:32:45;;;;;;;14.57;2.90;;;5.40;76.20;;;;;;5075767;28;20075;-75
2022/01/06 07:35:10;;;;;;;9.60;2.73;;;5.40;76.20;;;;;;5075243;28;20024;-73
2022/01/06 07:37:36;;;;;;;8.87;3.10;;;5.40;76.30;;;;;;5075566;28;20415;-72
2022/01/06 07:40:03;;;;;;;10.47;3.30;;;5.30;76.20;;;;;;5057317;28;20032;-71
2022/01/06 07:42:28;;;;;;;10.37;2.90;;;5.30;76.30;;;;;;5075198;28;20086;-70
2022/01/06 07:44:55;;;;;;;11.07;2.43;;;5.30;76.30;;;;;;5058106;28;20096;-72
2022/01/06 07:47:21;;;;;;;14.93;2.80;;;5.30;76.30;;;;;;5075190;28;20035;-71
2022/01/06 07:49:47;;;;;;;13.77;3.10;;;5.30;76.30;;;;;;5058651;28;20029;-70
2022/01/06 07:52:12;;;;;;;11.10;3.23;;;5.30;76.20;;;;;;5057245;28;20055;-70
2022/01/06 07:54:38;;;;;;;10.60;2.53;;;5.30;76.20;;;;;;5074780;28;20032;-72
2022/01/06 07:57:04;;;;;;;10.67;3.00;;;5.30;76.20;;;;;;5074349;28;20438;-73
2022/01/06 07:59:29;;;;;;;10.90;2.40;;;5.30;76.20;;;;;;5075579;28;20023;-70
2022/01/06 08:01:55;;;;;;;9.23;2.57;;;5.30;76.20;;;;;;5057881;28;20114;-70
2022/01/06 08:04:20;;;;;;;9.33;3.00;;;5.30;76.20;;;;;;5074730;28;20111;-71
2022/01/06 08:06:46;;;;;;;11.57;2.90;;;5.30;76.20;;;;;;5074873;28;20445;-69
2022/01/06 08:09:11;;;;;;;11.60;2.97;;;5.30;76.20;;;;;;5074412;28;20036;-70
2022/01/06 08:11:37;;;;;;;13.07;2.73;;;5.30;76.20;;;;;;5074205;28;20040;-71
2022/01/06 08:14:03;;;;;;;15.17;3.13;;;5.30;76.20;;;;;;5074148;28;20419;-70
2022/01/06 08:16:28;;;;;;;12.13;4.00;;;5.30;76.20;;;;;;5074068;28;20410;-73
2022/01/06 08:18:54;;;;;;;12.27;3.10;;;5.30;76.20;;;;;;5073788;28;20024;-71
2022/01/06 08:21:20;;;;;;;14.63;2.83;;;5.30;76.20;;;;;;5075434;28;20483;-71
2022/01/06 08:23:45;;;;;;;9.57;2.83;;;5.30;76.20;;;;;;5075688;28;20029;-73
2022/01/06 08:26:11;;;;;;;22.53;3.23;;;5.40;76.20;;;;;;5074104;28;20465;-71
2022/01/06 08:28:37;;;;;;;13.43;3.57;;;5.40;76.20;;;;;;5057350;28;20032;-73
2022/01/06 08:31:03;;;;;;;12.47;2.80;;;5.40;76.10;;;;;;5067012;28;20032;-74
2022/01/06 08:33:28;;;;;;;9.57;2.90;;;5.40;76.10;;;;;;5066699;28;20041;-74
2022/01/06 08:35:54;;;;;;;12.47;3.37;;;5.40;76.10;;;;;;5072590;28;20429;-72
2022/01/06 08:38:20;;;;;;;10.07;2.70;;;5.40;76.10;;;;;;5057687;28;20090;-70
2022/01/06 08:40:45;;;;;;;12.17;3.10;;;5.50;76.10;;;;;;5057288;28;20039;-70
2022/01/06 08:43:11;;;;;;;10.10;2.37;;;5.50;76.00;;;;;;5053666;28;20032;-72
2022/01/06 08:45:37;;;;;;;12.70;3.30;;;5.50;75.90;;;;;;5053800;28;20116;-71
2022/01/06 08:48:03;;;;;;;12.83;3.80;;;5.60;75.90;;;;;;5073776;28;20040;-71
2022/01/06 08:50:29;;;;;;;18.97;6.30;;;5.50;75.80;;;;;;5072843;28;20037;-70
2022/01/06 08:52:55;;;;;;;16.03;5.53;;;5.60;75.90;;;;;;5065369;28;20044;-69
2022/01/06 08:55:22;;;;;;;12.20;4.77;;;5.60;75.90;;;;;;5059437;28;20025;-70
2022/01/06 08:57:47;;;;;;;14.73;4.50;;;5.60;75.80;;;;;;5063950;28;20028;-72
2022/01/06 09:00:14;;;;;;;17.40;5.43;;;5.70;75.80;;;;;;5069227;28;20043;-71
2022/01/06 09:02:40;;;;;;;17.50;4.73;;;5.70;75.70;;;;;;5061017;28;20017;-71
2022/01/06 09:05:06;;;;;;;11.90;4.67;;;5.80;75.70;;;;;;5065430;28;20381;-71
2022/01/06 09:07:35;;;;;;;15.17;3.87;;;5.80;75.70;;;;;;5071949;28;20036;-71
2022/01/06 09:10:01;;;;;;;12.93;4.43;;;5.80;75.60;;;;;;5073758;28;20039;-71
2022/01/06 09:12:27;;;;;;;14.40;3.70;;;5.90;75.70;;;;;;5073536;28;20436;-70
2022/01/06 09:14:52;;;;;;;11.87;3.17;;;5.90;75.60;;;;;;5068307;28;20035;-73
2022/01/06 09:17:18;;;;;;;11.80;3.40;;;6.00;75.50;;;;;;5065022;28;20104;-73
2022/01/06 09:19:44;;;;;;;12.60;2.97;;;6.10;75.50;;;;;;5067932;28;20097;-73
2022/01/06 09:22:09;;;;;;;15.80;4.30;;;6.10;75.30;;;;;;5069371;28;20040;-68
2022/01/06 09:24:35;;;;;;;11.60;3.70;;;6.20;75.30;;;;;;5057378;28;20035;-75
2022/01/06 09:27:01;;;;;;;12.90;3.97;;;6.20;75.20;;;;;;5074500;28;20661;-65
2022/01/06 09:29:26;;;;;;;13.70;4.33;;;6.30;75.20;;;;;;5073608;28;20036;-67
2022/01/06 09:31:52;;;;;;;13.90;4.00;;;6.30;75.10;;;;;;5072394;28;20033;-66
2022/01/06 09:34:17;;;;;;;15.87;3.77;;;6.30;75.10;;;;;;5073310;28;20062;-69
2022/01/06 09:36:43;;;;;;;14.13;4.00;;;6.40;75.10;;;;;;5056388;28;20025;-72
2022/01/06 09:39:10;;;;;;;9.53;4.43;;;6.50;75.00;;;;;;5055148;28;20032;-63
2022/01/06 09:41:37;;;;;;;13.73;3.37;;;6.50;74.80;;;;;;5074225;28;20029;-67
2022/01/06 09:44:03;;;;;;;11.80;3.10;;;6.60;74.70;;;;;;5073417;28;20067;-67
2022/01/06 09:46:30;;;;;;;12.50;3.47;;;6.60;74.50;;;;;;5077566;28;20072;-64
2022/01/06 09:48:59;;;;;;;15.60;3.50;;;6.70;74.50;;;;;;5059861;28;20338;-63
2022/01/06 09:51:26;;;;;;;9.73;3.03;;;6.70;74.30;;;;;;5077101;28;20024;-65
2022/01/06 09:53:55;;;;;;;11.60;3.40;;;6.80;74.30;;;;;;5076969;28;20507;-63
2022/01/06 09:56:21;;;;;;;10.87;3.20;;;6.80;74.30;;;;;;5061442;28;20020;-62
2022/01/06 09:58:47;;;;;;;14.43;2.90;;;6.80;74.30;;;;;;5076964;28;20130;-62
2022/01/06 10:01:13;;;;;;;9.60;3.10;;;6.90;74.30;;;;;;5077223;28;20020;-64
2022/01/06 10:03:42;;;;;;;10.33;3.30;;;6.90;74.20;;;;;;5076041;28;20468;-64
2022/01/06 10:06:13;;;;;;;8.50;2.50;;;6.90;74.10;;;;;;5077539;28;20234;-66
2022/01/06 10:08:40;;;;;;;15.43;3.42;;;6.90;74.00;;;;;;5059563;28;20033;-62
2022/01/06 10:11:13;;;;;;;11.80;2.60;;;7.00;74.00;;;;;;5059676;28;20093;-63
2022/01/06 10:13:40;;;;;;;12.90;3.40;;;7.10;73.90;;;;;;5076152;28;20345;-63
2022/01/06 10:16:32;;;;;;;8.10;2.87;;;7.20;73.70;;;;;;5077003;28;20025;-66
2022/01/06 10:19:09;;;;;;;7.63;2.77;;;7.50;73.30;;;;;;5076012;28;20040;-63
2022/01/06 10:21:37;;;;;;;11.00;2.87;;;7.60;72.80;;;;;;5077222;28;20108;-63
2022/01/06 10:24:11;;;;;;;9.30;2.53;;;7.80;72.40;;;;;;5075072;28;20036;-62
2022/01/06 10:26:50;;;;;;;10.53;3.03;;;8.10;72.00;;;;;;5075291;28;20021;-63
2022/01/06 10:29:18;;;;;;;13.13;3.80;;;8.20;71.70;;;;;;5075258;28;20035;-63
2022/01/06 10:31:44;;;;;;;11.73;3.17;;;8.40;71.50;;;;;;5075798;28;20028;-64
2022/01/06 10:34:09;;;;;;;13.73;3.30;;;8.50;71.20;;;;;;5075592;28;20040;-63
2022/01/06 10:36:36;;;;;;;11.53;3.40;;;8.60;71.00;;;;;;5076333;28;20086;-65
2022/01/06 10:39:06;;;;;;;9.87;2.90;;;8.70;70.80;;;;;;5076030;28;20024;-64
2022/01/06 10:41:32;;;;;;;13.13;2.93;;;8.80;70.40;;;;;;5076440;28;20098;-63
2022/01/06 10:44:00;;;;;;;8.03;3.37;;;8.90;70.30;;;;;;5075144;28;20034;-64
2022/01/06 10:46:38;;;;;;;15.00;3.38;;;9.00;70.10;;;;;;5074531;28;20064;-62
2022/01/06 10:49:16;;;;;;;10.40;2.93;;;9.10;69.90;;;;;;5076470;28;20025;-62
2022/01/06 10:51:48;;;;;;;10.18;2.58;;;9.10;69.60;;;;;;5073236;28;20028;-62
2022/01/06 10:54:24;;;;;;;13.07;2.97;;;9.20;69.50;;;;;;5076805;28;20038;-62
2022/01/06 10:57:09;;;;;;;15.02;3.38;;;9.30;69.40;;;;;;5068856;28;20086;-63
2022/01/06 10:59:36;;;;;;;13.30;3.55;;;9.30;69.10;;;;;;5075645;28;20053;-64
2022/01/06 11:02:02;;;;;;;10.25;2.47;;;9.30;69.10;;;;;;5076451;28;20397;-61
2022/01/06 11:04:29;;;;;;;8.63;2.22;;;9.40;69.00;;;;;;5076282;28;20040;-61
2022/01/06 11:06:56;;;;;;;9.35;2.15;;;9.30;69.00;;;;;;5075827;28;20082;-61
2022/01/06 11:09:22;;;;;;;9.25;2.72;;;9.40;69.00;;;;;;5075900;28;20060;-64
2022/01/06 11:14:26;;;;;;;8.20;2.43;;;9.40;68.90;;;;;;5075529;28;20330;-63
2022/01/06 11:16:52;;;;;;;13.77;3.63;;;9.40;68.80;;;;;;5074922;28;20030;-63
2022/01/06 11:19:23;;;;;;;10.77;3.03;;;9.50;68.80;;;;;;5076272;28;20111;-62
2022/01/06 11:21:50;;;;;;;7.47;2.50;;;9.50;68.80;;;;;;5075029;28;20457;-66
2022/01/06 11:24:17;;;;;;;9.83;2.77;;;9.50;68.80;;;;;;5076592;28;20121;-63
2022/01/06 11:27:05;;;;;;;11.07;3.63;;;9.50;68.70;;;;;;5076451;28;20031;-63
2022/01/06 11:29:42;;;;;;;11.82;3.30;;;9.40;68.70;;;;;;5075049;28;20450;-64
2022/01/06 11:32:24;;;;;;;8.68;2.78;;;9.40;68.90;;;;;;5075239;28;20063;-63
2022/01/06 11:35:02;;;;;;;10.63;2.70;;;9.30;69.00;;;;;;5075479;28;20032;-64
2022/01/06 11:37:40;;;;;;;9.60;2.27;;;9.20;69.10;;;;;;5076078;28;20040;-64
2022/01/06 11:40:06;;;;;;;10.95;2.70;;;9.10;69.40;;;;;;5075046;28;20307;-64
2022/01/06 11:42:32;;;;;;;8.88;2.35;;;9.00;69.50;;;;;;5056458;28;20047;-64
2022/01/06 11:44:58;;;;;;;11.45;2.67;;;8.90;69.50;;;;;;5070905;28;20024;-66
2022/01/06 11:47:38;;;;;;;10.90;2.78;;;8.90;69.70;;;;;;5076062;28;20032;-66
2022/01/06 11:50:10;;;;;;;9.35;2.45;;;8.90;69.70;;;;;;5075013;28;20165;-66
2022/01/06 11:52:36;;;;;;;8.82;2.50;;;8.80;69.70;;;;;;5058025;28;20044;-63
2022/01/06 11:55:13;;;;;;;13.43;2.95;;;8.80;69.70;;;;;;5073538;28;20029;-63
2022/01/06 11:57:39;;;;;;;9.18;2.50;;;8.80;69.70;;;;;;5072943;28;20016;-64
2022/01/06 12:00:26;;;;;;;10.35;2.58;;;8.70;69.80;;;;;;5073959;28;20032;-63
2022/01/06 12:02:59;;;;;;;8.20;2.60;;;8.70;69.80;;;;;;5067299;28;20032;-63
2022/01/06 12:05:25;;;;;;;9.48;2.65;;;8.70;69.90;;;;;;5058312;28;20057;-64
2022/01/06 12:07:52;;;;;;;8.20;2.50;;;8.70;70.00;;;;;;5055479;28;20098;-63
2022/01/06 12:10:18;;;;;;;10.17;3.30;;;8.70;70.10;;;;;;5053662;28;20037;-63
2022/01/06 12:12:44;;;;;;;11.07;2.63;;;8.60;70.20;;;;;;5055156;28;20451;-63
2022/01/06 12:15:14;;;;;;;7.38;2.63;;;8.60;70.20;;;;;;5054442;28;20342;-63
2022/01/06 12:17:51;;;;;;;9.33;2.63;;;8.60;70.30;;;;;;5044956;28;20029;-63
2022/01/06 12:20:27;;;;;;;13.23;3.00;;;8.60;70.40;;;;;;5054200;28;20440;-63
2022/01/06 12:22:54;;;;;;;9.82;3.20;;;8.60;70.50;;;;;;5054206;28;20078;-65
2022/01/06 12:25:27;;;;;;;8.60;2.72;;;8.60;70.50;;;;;;5054081;28;20044;-63
2022/01/06 12:28:01;;;;;;;9.23;3.10;;;8.60;70.50;;;;;;5118115;27;20384;-62
2022/01/06 12:30:35;;;;;;;11.10;2.80;;;8.60;70.60;;;;;;5092975;28;20012;-61
2022/01/06 12:33:06;;;;;;;11.63;3.13;;;8.70;70.60;;;;;;5107286;28;20024;-62
2022/01/06 12:35:55;;;;;;;13.95;3.67;;;8.60;70.60;;;;;;5106703;28;20063;-61
2022/01/06 12:38:26;;;;;;;8.48;2.28;;;8.60;70.60;;;;;;5071986;28;20395;-61
2022/01/06 12:40:52;;;;;;;;;;;8.70;70.70;;;;;;5122947;28;20066;-61
2022/01/06 12:43:24;;;;;;;11.63;2.93;;;8.60;70.70;;;;;;5111121;28;19914;-62
2022/01/06 12:46:04;;;;;;;8.32;2.67;;;8.60;70.80;;;;;;5097297;28;20115;-62
2022/01/06 12:48:35;;;;;;;13.47;2.77;;;8.60;70.70;;;;;;5092096;28;21681;-59
2022/01/06 12:51:01;;;;;;;8.27;2.43;;;8.60;70.70;;;;;;5095599;28;20028;-60
2022/01/06 12:53:33;;;;;;;8.80;2.67;;;8.60;70.80;;;;;;5090843;28;20269;-61
2022/01/06 12:55:59;;;;;;;12.45;2.83;;;8.60;70.80;;;;;;5096363;28;20474;-60
2022/01/06 12:58:36;;;;;;;10.40;2.70;;;8.60;70.80;;;;;;5114145;28;20073;-60
2022/01/06 13:01:07;;;;;;;9.50;2.50;;;8.60;70.80;;;;;;5093773;28;20040;-60
2022/01/06 13:03:39;;;;;;;10.27;3.10;;;8.60;70.80;;;;;;5109827;28;20440;-60